sensor_id;sensor_type;location;lat;lon;timestamp;P1;durP1;ratioP1;P2;durP2;ratioP2
71038;SDS011;58692;43.212;27.908;2023-12-14T00:00:14;33.03;;;19.43;;
71038;SDS011;58692;43.212;27.908;2023-12-14T00:02:40;34.50;;;18.45;;
71038;SDS011;58692;43.212;27.908;2023-12-14T00:05:06;30.67;;;18.33;;
71038;SDS011;58692;43.212;27.908;2023-12-14T00:07:31;34.00;;;19.55;;
71038;SDS011;58692;43.212;27.908;2023-12-14T00:09:57;30.80;;;18.03;;
71038;SDS011;58692;43.212;27.908;2023-12-14T00:12:23;31.63;;;18.50;;
71038;SDS011;58692;43.212;27.908;2023-12-14T00:14:48;31.50;;;18.10;;
71038;SDS011;58692;43.212;27.908;2023-12-14T00:17:14;34.13;;;18.55;;
71038;SDS011;58692;43.212;27.908;2023-12-14T00:19:39;32.40;;;17.43;;
71038;SDS011;58692;43.212;27.908;2023-12-14T00:22:05;35.30;;;19.23;;
71038;SDS011;58692;43.212;27.908;2023-12-14T00:24:31;34.37;;;18.53;;
71038;SDS011;58692;43.212;27.908;2023-12-14T00:26:56;32.20;;;18.33;;
71038;SDS011;58692;43.212;27.908;2023-12-14T00:29:22;30.00;;;17.63;;
71038;SDS011;58692;43.212;27.908;2023-12-14T00:31:47;30.33;;;17.97;;
71038;SDS011;58692;43.212;27.908;2023-12-14T00:34:13;33.08;;;18.60;;
71038;SDS011;58692;43.212;27.908;2023-12-14T00:36:39;33.90;;;19.05;;
71038;SDS011;58692;43.212;27.908;2023-12-14T00:39:04;32.13;;;18.03;;
71038;SDS011;58692;43.212;27.908;2023-12-14T00:41:30;32.03;;;18.95;;
71038;SDS011;58692;43.212;27.908;2023-12-14T00:43:55;35.70;;;19.50;;
71038;SDS011;58692;43.212;27.908;2023-12-14T00:46:21;37.22;;;20.85;;
71038;SDS011;58692;43.212;27.908;2023-12-14T00:48:47;33.33;;;18.43;;
71038;SDS011;58692;43.212;27.908;2023-12-14T00:51:12;30.80;;;17.60;;
71038;SDS011;58692;43.212;27.908;2023-12-14T00:53:38;31.37;;;18.17;;
71038;SDS011;58692;43.212;27.908;2023-12-14T00:56:04;33.75;;;18.10;;
71038;SDS011;58692;43.212;27.908;2023-12-14T00:58:29;31.90;;;17.83;;
71038;SDS011;58692;43.212;27.908;2023-12-14T01:00:55;30.48;;;18.13;;
71038;SDS011;58692;43.212;27.908;2023-12-14T01:03:20;32.20;;;18.43;;
71038;SDS011;58692;43.212;27.908;2023-12-14T01:05:46;34.23;;;19.90;;
71038;SDS011;58692;43.212;27.908;2023-12-14T01:08:12;39.28;;;20.15;;
71038;SDS011;58692;43.212;27.908;2023-12-14T01:10:38;33.90;;;19.40;;
71038;SDS011;58692;43.212;27.908;2023-12-14T01:13:03;35.20;;;19.35;;
71038;SDS011;58692;43.212;27.908;2023-12-14T01:15:29;35.80;;;19.37;;
71038;SDS011;58692;43.212;27.908;2023-12-14T01:17:54;32.45;;;18.38;;
71038;SDS011;58692;43.212;27.908;2023-12-14T01:20:20;34.50;;;18.67;;
71038;SDS011;58692;43.212;27.908;2023-12-14T01:22:45;39.23;;;18.47;;
71038;SDS011;58692;43.212;27.908;2023-12-14T01:25:11;35.70;;;19.63;;
71038;SDS011;58692;43.212;27.908;2023-12-14T01:27:37;31.23;;;17.73;;
71038;SDS011;58692;43.212;27.908;2023-12-14T01:30:03;33.20;;;17.60;;
71038;SDS011;58692;43.212;27.908;2023-12-14T01:32:29;30.83;;;17.63;;
71038;SDS011;58692;43.212;27.908;2023-12-14T01:34:54;31.97;;;18.43;;
71038;SDS011;58692;43.212;27.908;2023-12-14T01:37:20;31.48;;;17.00;;
71038;SDS011;58692;43.212;27.908;2023-12-14T01:39:45;31.30;;;18.17;;
71038;SDS011;58692;43.212;27.908;2023-12-14T01:42:11;32.97;;;17.80;;
71038;SDS011;58692;43.212;27.908;2023-12-14T01:44:37;31.83;;;17.93;;
71038;SDS011;58692;43.212;27.908;2023-12-14T01:47:02;33.50;;;18.53;;
71038;SDS011;58692;43.212;27.908;2023-12-14T01:49:28;34.85;;;17.23;;
71038;SDS011;58692;43.212;27.908;2023-12-14T01:51:53;31.93;;;17.43;;
71038;SDS011;58692;43.212;27.908;2023-12-14T01:54:19;34.58;;;18.20;;
71038;SDS011;58692;43.212;27.908;2023-12-14T01:56:45;31.93;;;17.03;;
71038;SDS011;58692;43.212;27.908;2023-12-14T01:59:11;32.10;;;18.60;;
71038;SDS011;58692;43.212;27.908;2023-12-14T02:01:41;33.80;;;19.90;;
71038;SDS011;58692;43.212;27.908;2023-12-14T02:04:08;35.87;;;21.47;;
71038;SDS011;58692;43.212;27.908;2023-12-14T02:06:35;49.17;;;26.95;;
71038;SDS011;58692;43.212;27.908;2023-12-14T02:09:01;54.25;;;28.27;;
71038;SDS011;58692;43.212;27.908;2023-12-14T02:11:26;54.73;;;30.37;;
71038;SDS011;58692;43.212;27.908;2023-12-14T02:13:52;49.60;;;28.02;;
71038;SDS011;58692;43.212;27.908;2023-12-14T02:16:17;50.73;;;29.43;;
71038;SDS011;58692;43.212;27.908;2023-12-14T02:18:44;54.83;;;28.30;;
71038;SDS011;58692;43.212;27.908;2023-12-14T02:21:10;55.38;;;28.27;;
71038;SDS011;58692;43.212;27.908;2023-12-14T02:23:42;55.00;;;29.47;;
71038;SDS011;58692;43.212;27.908;2023-12-14T02:26:09;55.47;;;29.73;;
71038;SDS011;58692;43.212;27.908;2023-12-14T02:28:34;51.80;;;26.97;;
71038;SDS011;58692;43.212;27.908;2023-12-14T02:31:00;49.65;;;27.17;;
71038;SDS011;58692;43.212;27.908;2023-12-14T02:33:26;50.60;;;28.17;;
71038;SDS011;58692;43.212;27.908;2023-12-14T02:35:51;52.97;;;27.13;;
71038;SDS011;58692;43.212;27.908;2023-12-14T02:38:17;51.55;;;27.17;;
71038;SDS011;58692;43.212;27.908;2023-12-14T02:40:42;50.17;;;28.17;;
71038;SDS011;58692;43.212;27.908;2023-12-14T02:43:08;49.17;;;26.85;;
71038;SDS011;58692;43.212;27.908;2023-12-14T02:45:34;51.83;;;27.27;;
71038;SDS011;58692;43.212;27.908;2023-12-14T02:47:59;50.90;;;27.77;;
71038;SDS011;58692;43.212;27.908;2023-12-14T02:50:25;51.43;;;27.13;;
71038;SDS011;58692;43.212;27.908;2023-12-14T02:52:50;47.77;;;26.93;;
71038;SDS011;58692;43.212;27.908;2023-12-14T02:55:16;52.70;;;26.90;;
71038;SDS011;58692;43.212;27.908;2023-12-14T02:57:41;48.40;;;28.00;;
71038;SDS011;58692;43.212;27.908;2023-12-14T03:00:07;50.70;;;25.60;;
71038;SDS011;58692;43.212;27.908;2023-12-14T03:02:33;53.00;;;25.77;;
71038;SDS011;58692;43.212;27.908;2023-12-14T03:04:59;49.42;;;25.05;;
71038;SDS011;58692;43.212;27.908;2023-12-14T03:07:25;44.20;;;25.47;;
71038;SDS011;58692;43.212;27.908;2023-12-14T03:09:50;49.38;;;25.75;;
71038;SDS011;58692;43.212;27.908;2023-12-14T03:12:16;46.27;;;25.57;;
71038;SDS011;58692;43.212;27.908;2023-12-14T03:14:41;45.97;;;25.80;;
71038;SDS011;58692;43.212;27.908;2023-12-14T03:17:07;53.10;;;29.50;;
71038;SDS011;58692;43.212;27.908;2023-12-14T03:19:38;50.75;;;27.38;;
71038;SDS011;58692;43.212;27.908;2023-12-14T03:22:05;48.97;;;27.25;;
71038;SDS011;58692;43.212;27.908;2023-12-14T03:24:30;46.20;;;25.20;;
71038;SDS011;58692;43.212;27.908;2023-12-14T03:26:56;50.57;;;27.27;;
71038;SDS011;58692;43.212;27.908;2023-12-14T03:29:22;49.13;;;27.33;;
71038;SDS011;58692;43.212;27.908;2023-12-14T03:31:47;46.90;;;26.23;;
71038;SDS011;58692;43.212;27.908;2023-12-14T03:34:13;45.50;;;25.57;;
71038;SDS011;58692;43.212;27.908;2023-12-14T03:36:39;42.10;;;24.03;;
71038;SDS011;58692;43.212;27.908;2023-12-14T03:39:04;46.20;;;25.60;;
71038;SDS011;58692;43.212;27.908;2023-12-14T03:41:31;45.97;;;24.83;;
71038;SDS011;58692;43.212;27.908;2023-12-14T03:43:57;43.40;;;26.38;;
71038;SDS011;58692;43.212;27.908;2023-12-14T03:46:23;48.20;;;25.63;;
71038;SDS011;58692;43.212;27.908;2023-12-14T03:48:48;45.47;;;24.77;;
71038;SDS011;58692;43.212;27.908;2023-12-14T03:51:17;43.03;;;25.80;;
71038;SDS011;58692;43.212;27.908;2023-12-14T03:53:43;45.95;;;25.38;;
71038;SDS011;58692;43.212;27.908;2023-12-14T03:56:09;48.83;;;25.52;;
71038;SDS011;58692;43.212;27.908;2023-12-14T03:58:36;35.47;;;20.63;;
71038;SDS011;58692;43.212;27.908;2023-12-14T04:01:01;35.83;;;20.33;;
71038;SDS011;58692;43.212;27.908;2023-12-14T04:03:27;35.00;;;18.93;;
71038;SDS011;58692;43.212;27.908;2023-12-14T04:05:53;37.60;;;20.02;;
71038;SDS011;58692;43.212;27.908;2023-12-14T04:08:18;39.53;;;22.10;;
71038;SDS011;58692;43.212;27.908;2023-12-14T04:10:44;41.07;;;21.90;;
71038;SDS011;58692;43.212;27.908;2023-12-14T04:13:09;50.95;;;26.02;;
71038;SDS011;58692;43.212;27.908;2023-12-14T04:15:35;41.83;;;23.47;;
71038;SDS011;58692;43.212;27.908;2023-12-14T04:18:00;41.87;;;23.23;;
71038;SDS011;58692;43.212;27.908;2023-12-14T04:20:26;43.83;;;26.37;;
71038;SDS011;58692;43.212;27.908;2023-12-14T04:22:52;39.80;;;24.00;;
71038;SDS011;58692;43.212;27.908;2023-12-14T04:25:17;42.65;;;25.88;;
71038;SDS011;58692;43.212;27.908;2023-12-14T04:27:43;43.43;;;25.63;;
71038;SDS011;58692;43.212;27.908;2023-12-14T04:30:09;51.42;;;27.55;;
71038;SDS011;58692;43.212;27.908;2023-12-14T04:32:36;39.33;;;22.60;;
71038;SDS011;58692;43.212;27.908;2023-12-14T04:35:02;35.65;;;17.73;;
71038;SDS011;58692;43.212;27.908;2023-12-14T04:37:28;29.63;;;16.87;;
71038;SDS011;58692;43.212;27.908;2023-12-14T04:39:55;31.75;;;17.63;;
71038;SDS011;58692;43.212;27.908;2023-12-14T04:42:21;35.20;;;19.00;;
71038;SDS011;58692;43.212;27.908;2023-12-14T04:44:46;28.57;;;16.73;;
71038;SDS011;58692;43.212;27.908;2023-12-14T04:47:12;29.53;;;16.73;;
71038;SDS011;58692;43.212;27.908;2023-12-14T04:49:37;27.73;;;16.40;;
71038;SDS011;58692;43.212;27.908;2023-12-14T04:52:03;31.50;;;17.43;;
71038;SDS011;58692;43.212;27.908;2023-12-14T04:54:29;31.75;;;18.60;;
71038;SDS011;58692;43.212;27.908;2023-12-14T04:56:55;32.75;;;18.65;;
71038;SDS011;58692;43.212;27.908;2023-12-14T04:59:20;33.90;;;20.80;;
71038;SDS011;58692;43.212;27.908;2023-12-14T05:01:46;40.38;;;24.10;;
71038;SDS011;58692;43.212;27.908;2023-12-14T05:04:12;41.07;;;25.20;;
71038;SDS011;58692;43.212;27.908;2023-12-14T05:06:38;38.47;;;24.92;;
71038;SDS011;58692;43.212;27.908;2023-12-14T05:09:03;44.93;;;26.47;;
71038;SDS011;58692;43.212;27.908;2023-12-14T05:11:31;39.40;;;22.40;;
71038;SDS011;58692;43.212;27.908;2023-12-14T05:13:57;41.33;;;24.55;;
71038;SDS011;58692;43.212;27.908;2023-12-14T05:16:23;50.22;;;31.20;;
71038;SDS011;58692;43.212;27.908;2023-12-14T05:18:52;56.57;;;35.17;;
71038;SDS011;58692;43.212;27.908;2023-12-14T05:21:21;58.72;;;35.33;;
71038;SDS011;58692;43.212;27.908;2023-12-14T05:23:51;77.25;;;41.90;;
71038;SDS011;58692;43.212;27.908;2023-12-14T05:26:26;61.20;;;37.20;;
71038;SDS011;58692;43.212;27.908;2023-12-14T05:28:52;62.20;;;36.00;;
71038;SDS011;58692;43.212;27.908;2023-12-14T05:31:18;60.65;;;36.67;;
71038;SDS011;58692;43.212;27.908;2023-12-14T05:33:43;58.00;;;32.78;;
71038;SDS011;58692;43.212;27.908;2023-12-14T05:36:09;58.83;;;34.47;;
71038;SDS011;58692;43.212;27.908;2023-12-14T05:38:37;62.47;;;34.45;;
71038;SDS011;58692;43.212;27.908;2023-12-14T05:41:03;56.95;;;30.95;;
71038;SDS011;58692;43.212;27.908;2023-12-14T05:43:29;56.97;;;33.97;;
71038;SDS011;58692;43.212;27.908;2023-12-14T05:45:55;54.83;;;32.40;;
71038;SDS011;58692;43.212;27.908;2023-12-14T05:48:20;52.13;;;31.03;;
71038;SDS011;58692;43.212;27.908;2023-12-14T05:50:46;49.25;;;31.30;;
71038;SDS011;58692;43.212;27.908;2023-12-14T05:53:14;50.58;;;31.98;;
71038;SDS011;58692;43.212;27.908;2023-12-14T05:55:39;57.03;;;32.30;;
71038;SDS011;58692;43.212;27.908;2023-12-14T05:58:08;51.47;;;31.05;;
71038;SDS011;58692;43.212;27.908;2023-12-14T06:00:34;47.47;;;28.60;;
71038;SDS011;58692;43.212;27.908;2023-12-14T06:03:03;52.97;;;29.88;;
71038;SDS011;58692;43.212;27.908;2023-12-14T06:05:29;48.63;;;30.17;;
71038;SDS011;58692;43.212;27.908;2023-12-14T06:07:55;67.75;;;43.10;;
71038;SDS011;58692;43.212;27.908;2023-12-14T06:10:23;66.47;;;42.93;;
71038;SDS011;58692;43.212;27.908;2023-12-14T06:12:49;66.20;;;40.40;;
71038;SDS011;58692;43.212;27.908;2023-12-14T06:15:15;67.88;;;39.95;;
71038;SDS011;58692;43.212;27.908;2023-12-14T06:17:41;68.13;;;40.97;;
71038;SDS011;58692;43.212;27.908;2023-12-14T06:20:07;68.65;;;36.72;;
71038;SDS011;58692;43.212;27.908;2023-12-14T06:22:36;63.25;;;36.72;;
71038;SDS011;58692;43.212;27.908;2023-12-14T06:25:03;65.15;;;36.80;;
71038;SDS011;58692;43.212;27.908;2023-12-14T06:27:29;61.50;;;36.60;;
71038;SDS011;58692;43.212;27.908;2023-12-14T06:29:55;58.22;;;33.58;;
71038;SDS011;58692;43.212;27.908;2023-12-14T06:32:20;56.15;;;33.17;;
71038;SDS011;58692;43.212;27.908;2023-12-14T06:34:47;52.20;;;30.63;;
71038;SDS011;58692;43.212;27.908;2023-12-14T06:37:21;44.67;;;26.80;;
71038;SDS011;58692;43.212;27.908;2023-12-14T06:39:47;52.20;;;30.43;;
71038;SDS011;58692;43.212;27.908;2023-12-14T06:42:31;58.00;;;30.93;;
71038;SDS011;58692;43.212;27.908;2023-12-14T06:44:57;62.58;;;32.97;;
71038;SDS011;58692;43.212;27.908;2023-12-14T06:47:30;53.50;;;30.90;;
71038;SDS011;58692;43.212;27.908;2023-12-14T06:49:55;55.00;;;31.27;;
71038;SDS011;58692;43.212;27.908;2023-12-14T06:52:22;63.70;;;34.22;;
71038;SDS011;58692;43.212;27.908;2023-12-14T06:55:01;57.95;;;32.88;;
71038;SDS011;58692;43.212;27.908;2023-12-14T06:57:34;56.20;;;31.80;;
71038;SDS011;58692;43.212;27.908;2023-12-14T07:00:02;54.80;;;31.67;;
71038;SDS011;58692;43.212;27.908;2023-12-14T07:02:29;54.83;;;32.78;;
71038;SDS011;58692;43.212;27.908;2023-12-14T07:04:55;53.07;;;31.67;;
71038;SDS011;58692;43.212;27.908;2023-12-14T07:07:41;50.83;;;29.97;;
71038;SDS011;58692;43.212;27.908;2023-12-14T07:10:07;48.72;;;29.45;;
71038;SDS011;58692;43.212;27.908;2023-12-14T07:12:33;50.42;;;30.65;;
71038;SDS011;58692;43.212;27.908;2023-12-14T07:14:58;49.87;;;29.20;;
71038;SDS011;58692;43.212;27.908;2023-12-14T07:17:24;48.53;;;28.35;;
71038;SDS011;58692;43.212;27.908;2023-12-14T07:19:50;46.70;;;28.20;;
71038;SDS011;58692;43.212;27.908;2023-12-14T07:22:16;48.50;;;29.50;;
71038;SDS011;58692;43.212;27.908;2023-12-14T07:24:42;45.55;;;28.58;;
71038;SDS011;58692;43.212;27.908;2023-12-14T07:27:07;45.77;;;26.37;;
71038;SDS011;58692;43.212;27.908;2023-12-14T07:29:36;45.40;;;27.50;;
71038;SDS011;58692;43.212;27.908;2023-12-14T07:32:02;49.80;;;29.83;;
71038;SDS011;58692;43.212;27.908;2023-12-14T07:34:31;48.38;;;28.75;;
71038;SDS011;58692;43.212;27.908;2023-12-14T07:36:57;49.17;;;28.67;;
71038;SDS011;58692;43.212;27.908;2023-12-14T07:39:22;44.27;;;29.50;;
71038;SDS011;58692;43.212;27.908;2023-12-14T07:41:48;51.50;;;29.87;;
71038;SDS011;58692;43.212;27.908;2023-12-14T07:44:28;57.57;;;35.53;;
71038;SDS011;58692;43.212;27.908;2023-12-14T07:47:40;57.95;;;36.22;;
71038;SDS011;58692;43.212;27.908;2023-12-14T07:50:07;60.60;;;36.15;;
71038;SDS011;58692;43.212;27.908;2023-12-14T07:52:39;58.92;;;34.53;;
71038;SDS011;58692;43.212;27.908;2023-12-14T07:55:07;56.83;;;35.53;;
71038;SDS011;58692;43.212;27.908;2023-12-14T07:57:36;54.87;;;34.00;;
71038;SDS011;58692;43.212;27.908;2023-12-14T08:00:01;54.75;;;33.78;;
71038;SDS011;58692;43.212;27.908;2023-12-14T08:05:32;58.87;;;35.87;;
71038;SDS011;58692;43.212;27.908;2023-12-14T08:08:30;56.78;;;35.78;;
71038;SDS011;58692;43.212;27.908;2023-12-14T08:10:56;64.00;;;39.03;;
71038;SDS011;58692;43.212;27.908;2023-12-14T08:13:21;59.03;;;34.33;;
71038;SDS011;58692;43.212;27.908;2023-12-14T08:15:47;54.53;;;34.15;;
71038;SDS011;58692;43.212;27.908;2023-12-14T08:18:13;55.77;;;36.27;;
71038;SDS011;58692;43.212;27.908;2023-12-14T08:20:38;60.90;;;36.97;;
71038;SDS011;58692;43.212;27.908;2023-12-14T08:23:04;60.40;;;36.40;;
71038;SDS011;58692;43.212;27.908;2023-12-14T08:25:30;55.77;;;35.47;;
71038;SDS011;58692;43.212;27.908;2023-12-14T08:27:58;58.87;;;35.87;;
71038;SDS011;58692;43.212;27.908;2023-12-14T08:30:23;58.22;;;34.88;;
71038;SDS011;58692;43.212;27.908;2023-12-14T08:32:49;63.43;;;37.47;;
71038;SDS011;58692;43.212;27.908;2023-12-14T08:35:15;68.15;;;40.42;;
71038;SDS011;58692;43.212;27.908;2023-12-14T08:37:40;65.63;;;41.67;;
71038;SDS011;58692;43.212;27.908;2023-12-14T08:40:06;62.38;;;39.35;;
71038;SDS011;58692;43.212;27.908;2023-12-14T08:42:32;66.68;;;39.75;;
71038;SDS011;58692;43.212;27.908;2023-12-14T08:44:59;68.93;;;40.15;;
71038;SDS011;58692;43.212;27.908;2023-12-14T08:47:25;60.77;;;39.03;;
71038;SDS011;58692;43.212;27.908;2023-12-14T08:49:50;64.85;;;39.28;;
71038;SDS011;58692;43.212;27.908;2023-12-14T08:52:17;69.03;;;40.50;;
71038;SDS011;58692;43.212;27.908;2023-12-14T08:54:45;58.25;;;36.22;;
71038;SDS011;58692;43.212;27.908;2023-12-14T08:57:11;58.38;;;33.60;;
71038;SDS011;58692;43.212;27.908;2023-12-14T08:59:37;52.60;;;31.57;;
71038;SDS011;58692;43.212;27.908;2023-12-14T09:02:03;54.40;;;32.90;;
71038;SDS011;58692;43.212;27.908;2023-12-14T09:04:28;55.50;;;33.57;;
71038;SDS011;58692;43.212;27.908;2023-12-14T09:06:54;47.38;;;29.85;;
71038;SDS011;58692;43.212;27.908;2023-12-14T09:09:20;39.60;;;24.17;;
71038;SDS011;58692;43.212;27.908;2023-12-14T09:11:48;45.57;;;26.47;;
71038;SDS011;58692;43.212;27.908;2023-12-14T09:14:14;49.80;;;27.05;;
71038;SDS011;58692;43.212;27.908;2023-12-14T09:16:41;42.55;;;26.38;;
71038;SDS011;58692;43.212;27.908;2023-12-14T09:19:07;48.87;;;25.97;;
71038;SDS011;58692;43.212;27.908;2023-12-14T09:21:33;47.33;;;27.00;;
71038;SDS011;58692;43.212;27.908;2023-12-14T09:23:59;48.35;;;28.00;;
71038;SDS011;58692;43.212;27.908;2023-12-14T09:26:24;44.27;;;25.50;;
71038;SDS011;58692;43.212;27.908;2023-12-14T09:28:53;37.75;;;22.25;;
71038;SDS011;58692;43.212;27.908;2023-12-14T09:31:19;32.92;;;21.45;;
71038;SDS011;58692;43.212;27.908;2023-12-14T09:33:45;42.40;;;22.40;;
71038;SDS011;58692;43.212;27.908;2023-12-14T09:36:15;35.67;;;20.58;;
71038;SDS011;58692;43.212;27.908;2023-12-14T09:38:43;36.63;;;19.85;;
71038;SDS011;58692;43.212;27.908;2023-12-14T09:41:12;48.20;;;21.65;;
71038;SDS011;58692;43.212;27.908;2023-12-14T09:43:38;62.27;;;23.63;;
71038;SDS011;58692;43.212;27.908;2023-12-14T09:46:04;56.03;;;25.75;;
71038;SDS011;58692;43.212;27.908;2023-12-14T09:48:29;63.87;;;27.13;;
71038;SDS011;58692;43.212;27.908;2023-12-14T09:50:57;62.28;;;25.92;;
71038;SDS011;58692;43.212;27.908;2023-12-14T09:53:25;75.90;;;26.00;;
71038;SDS011;58692;43.212;27.908;2023-12-14T09:55:51;60.30;;;22.90;;
71038;SDS011;58692;43.212;27.908;2023-12-14T09:58:17;62.25;;;25.13;;
71038;SDS011;58692;43.212;27.908;2023-12-14T10:00:51;74.07;;;34.55;;
71038;SDS011;58692;43.212;27.908;2023-12-14T10:03:26;68.82;;;35.28;;
71038;SDS011;58692;43.212;27.908;2023-12-14T10:05:55;64.93;;;34.03;;
71038;SDS011;58692;43.212;27.908;2023-12-14T10:08:25;83.85;;;37.35;;
71038;SDS011;58692;43.212;27.908;2023-12-14T10:10:52;75.75;;;35.22;;
71038;SDS011;58692;43.212;27.908;2023-12-14T10:13:35;71.03;;;32.95;;
71038;SDS011;58692;43.212;27.908;2023-12-14T10:16:02;77.20;;;34.33;;
71038;SDS011;58692;43.212;27.908;2023-12-14T10:18:41;61.97;;;29.13;;
71038;SDS011;58692;43.212;27.908;2023-12-14T10:21:08;48.42;;;24.27;;
71038;SDS011;58692;43.212;27.908;2023-12-14T10:23:41;51.33;;;22.73;;
71038;SDS011;58692;43.212;27.908;2023-12-14T10:26:15;54.47;;;20.88;;
71038;SDS011;58692;43.212;27.908;2023-12-14T10:28:41;39.37;;;17.00;;
71038;SDS011;58692;43.212;27.908;2023-12-14T10:31:07;37.30;;;18.65;;
71038;SDS011;58692;43.212;27.908;2023-12-14T10:33:36;40.33;;;17.98;;
71038;SDS011;58692;43.212;27.908;2023-12-14T10:36:13;38.63;;;17.07;;
71038;SDS011;58692;43.212;27.908;2023-12-14T10:38:40;34.75;;;17.88;;
71038;SDS011;58692;43.212;27.908;2023-12-14T10:41:14;38.45;;;18.92;;
71038;SDS011;58692;43.212;27.908;2023-12-14T10:43:43;34.63;;;17.42;;
71038;SDS011;58692;43.212;27.908;2023-12-14T10:46:13;37.90;;;17.38;;
71038;SDS011;58692;43.212;27.908;2023-12-14T10:48:40;32.87;;;14.57;;
71038;SDS011;58692;43.212;27.908;2023-12-14T10:51:09;41.75;;;16.05;;
71038;SDS011;58692;43.212;27.908;2023-12-14T10:53:37;60.28;;;15.93;;
71038;SDS011;58692;43.212;27.908;2023-12-14T10:56:04;36.40;;;14.60;;
71038;SDS011;58692;43.212;27.908;2023-12-14T11:01:19;37.00;;;15.00;;
71038;SDS011;58692;43.212;27.908;2023-12-14T11:03:47;30.30;;;12.60;;
71038;SDS011;58692;43.212;27.908;2023-12-14T11:09:00;32.60;;;13.10;;
71038;SDS011;58692;43.212;27.908;2023-12-14T11:14:22;31.23;;;13.97;;
71038;SDS011;58692;43.212;27.908;2023-12-14T11:16:53;27.60;;;11.23;;
71038;SDS011;58692;43.212;27.908;2023-12-14T11:19:33;28.88;;;11.10;;
71038;SDS011;58692;43.212;27.908;2023-12-14T11:24:42;25.05;;;9.55;;
71038;SDS011;58692;43.212;27.908;2023-12-14T11:27:15;22.60;;;9.40;;
71038;SDS011;58692;43.212;27.908;2023-12-14T11:29:45;23.23;;;10.30;;
71038;SDS011;58692;43.212;27.908;2023-12-14T11:32:13;31.92;;;10.70;;
71038;SDS011;58692;43.212;27.908;2023-12-14T11:34:39;23.03;;;8.23;;
71038;SDS011;58692;43.212;27.908;2023-12-14T11:37:05;16.73;;;6.45;;
71038;SDS011;58692;43.212;27.908;2023-12-14T11:39:31;10.90;;;5.32;;
71038;SDS011;58692;43.212;27.908;2023-12-14T11:42:00;13.73;;;5.68;;
71038;SDS011;58692;43.212;27.908;2023-12-14T11:44:43;17.23;;;7.03;;
71038;SDS011;58692;43.212;27.908;2023-12-14T11:47:38;14.93;;;6.00;;
71038;SDS011;58692;43.212;27.908;2023-12-14T11:50:26;16.98;;;6.35;;
71038;SDS011;58692;43.212;27.908;2023-12-14T11:53:05;15.90;;;5.93;;
71038;SDS011;58692;43.212;27.908;2023-12-14T11:55:33;13.03;;;5.43;;
71038;SDS011;58692;43.212;27.908;2023-12-14T11:58:01;13.00;;;5.13;;
71038;SDS011;58692;43.212;27.908;2023-12-14T12:00:28;14.07;;;6.15;;
71038;SDS011;58692;43.212;27.908;2023-12-14T12:05:39;11.68;;;5.50;;
71038;SDS011;58692;43.212;27.908;2023-12-14T12:08:06;16.17;;;5.90;;
71038;SDS011;58692;43.212;27.908;2023-12-14T12:10:33;18.38;;;6.30;;
71038;SDS011;58692;43.212;27.908;2023-12-14T12:13:01;14.88;;;5.35;;
71038;SDS011;58692;43.212;27.908;2023-12-14T12:15:30;32.20;;;7.30;;
71038;SDS011;58692;43.212;27.908;2023-12-14T12:17:57;22.27;;;7.68;;
71038;SDS011;58692;43.212;27.908;2023-12-14T12:20:23;19.53;;;6.80;;
71038;SDS011;58692;43.212;27.908;2023-12-14T12:22:50;17.67;;;6.85;;
71038;SDS011;58692;43.212;27.908;2023-12-14T12:25:19;19.52;;;7.95;;
71038;SDS011;58692;43.212;27.908;2023-12-14T12:27:46;18.92;;;7.20;;
71038;SDS011;58692;43.212;27.908;2023-12-14T12:30:12;17.10;;;7.35;;
71038;SDS011;58692;43.212;27.908;2023-12-14T12:32:40;17.30;;;6.00;;
71038;SDS011;58692;43.212;27.908;2023-12-14T12:35:06;19.42;;;7.00;;
71038;SDS011;58692;43.212;27.908;2023-12-14T12:37:33;17.90;;;7.32;;
71038;SDS011;58692;43.212;27.908;2023-12-14T12:39:59;12.55;;;5.90;;
71038;SDS011;58692;43.212;27.908;2023-12-14T12:42:25;13.67;;;5.93;;
71038;SDS011;58692;43.212;27.908;2023-12-14T12:44:50;21.13;;;6.75;;
71038;SDS011;58692;43.212;27.908;2023-12-14T12:47:16;15.50;;;5.95;;
71038;SDS011;58692;43.212;27.908;2023-12-14T12:49:42;15.90;;;6.30;;
71038;SDS011;58692;43.212;27.908;2023-12-14T12:52:08;11.40;;;5.97;;
71038;SDS011;58692;43.212;27.908;2023-12-14T12:54:34;14.90;;;6.25;;
71038;SDS011;58692;43.212;27.908;2023-12-14T12:57:00;12.25;;;5.38;;
71038;SDS011;58692;43.212;27.908;2023-12-14T12:59:26;12.20;;;6.10;;
71038;SDS011;58692;43.212;27.908;2023-12-14T13:01:54;16.08;;;6.63;;
71038;SDS011;58692;43.212;27.908;2023-12-14T13:04:27;14.65;;;5.32;;
71038;SDS011;58692;43.212;27.908;2023-12-14T13:06:55;12.80;;;5.20;;
71038;SDS011;58692;43.212;27.908;2023-12-14T13:09:21;14.17;;;5.13;;
71038;SDS011;58692;43.212;27.908;2023-12-14T13:11:48;14.43;;;6.03;;
71038;SDS011;58692;43.212;27.908;2023-12-14T13:14:15;15.23;;;6.70;;
71038;SDS011;58692;43.212;27.908;2023-12-14T13:16:41;16.63;;;7.00;;
71038;SDS011;58692;43.212;27.908;2023-12-14T13:19:08;16.90;;;7.70;;
71038;SDS011;58692;43.212;27.908;2023-12-14T13:21:34;18.80;;;8.15;;
71038;SDS011;58692;43.212;27.908;2023-12-14T13:24:01;17.42;;;7.82;;
71038;SDS011;58692;43.212;27.908;2023-12-14T13:26:27;17.70;;;7.40;;
71038;SDS011;58692;43.212;27.908;2023-12-14T13:28:52;20.23;;;7.57;;
71038;SDS011;58692;43.212;27.908;2023-12-14T13:31:18;18.88;;;7.20;;
71038;SDS011;58692;43.212;27.908;2023-12-14T13:33:45;17.38;;;6.88;;
71038;SDS011;58692;43.212;27.908;2023-12-14T13:36:12;12.80;;;6.00;;
71038;SDS011;58692;43.212;27.908;2023-12-14T13:38:38;17.95;;;6.90;;
71038;SDS011;58692;43.212;27.908;2023-12-14T13:41:06;16.35;;;6.43;;
71038;SDS011;58692;43.212;27.908;2023-12-14T13:43:32;16.90;;;6.93;;
71038;SDS011;58692;43.212;27.908;2023-12-14T13:45:58;18.17;;;8.07;;
71038;SDS011;58692;43.212;27.908;2023-12-14T13:48:24;23.25;;;9.48;;
71038;SDS011;58692;43.212;27.908;2023-12-14T13:50:57;21.45;;;10.35;;
71038;SDS011;58692;43.212;27.908;2023-12-14T13:53:22;22.17;;;9.20;;
71038;SDS011;58692;43.212;27.908;2023-12-14T13:55:48;22.47;;;9.40;;
71038;SDS011;58692;43.212;27.908;2023-12-14T13:58:15;19.48;;;8.48;;
71038;SDS011;58692;43.212;27.908;2023-12-14T14:00:41;25.10;;;8.40;;
71038;SDS011;58692;43.212;27.908;2023-12-14T14:03:07;18.75;;;8.00;;
71038;SDS011;58692;43.212;27.908;2023-12-14T14:05:33;18.02;;;6.85;;
71038;SDS011;58692;43.212;27.908;2023-12-14T14:07:59;16.45;;;6.55;;
71038;SDS011;58692;43.212;27.908;2023-12-14T14:10:25;27.33;;;6.63;;
71038;SDS011;58692;43.212;27.908;2023-12-14T14:12:51;16.03;;;6.60;;
71038;SDS011;58692;43.212;27.908;2023-12-14T14:15:29;12.43;;;5.80;;
71038;SDS011;58692;43.212;27.908;2023-12-14T14:17:56;15.93;;;7.43;;
71038;SDS011;58692;43.212;27.908;2023-12-14T14:20:22;21.13;;;9.15;;
71038;SDS011;58692;43.212;27.908;2023-12-14T14:22:49;16.20;;;8.27;;
71038;SDS011;58692;43.212;27.908;2023-12-14T14:25:15;17.77;;;9.38;;
71038;SDS011;58692;43.212;27.908;2023-12-14T14:27:41;28.63;;;10.52;;